メインページ
METAR-TAF:

METAR-TAF

空港 :

ロングイェールビーン, ノルウェー

緯度: 78-15N, 経度: 015-28E, 海抜: 2m

現時点の気象観測

当レポートは31分前の11:20(UTC)に作成
変向風 2kt
気温 -3°C
湿度 54%
気圧 1012 hPa
視程10km以上
高度2500ftの雲はほとんどない

METAR: ENSB 241120Z VRB02KT 9999 FEW025 M03/M11 Q1012 NOSIG RMK WIND 1400FT VRB02KT

時間: 13:51 (11:51 UTC)

予報

予報は24日の 06時(UTC)から 25日の 06時(UTC)まで有効
変向風 5kt
視程10km以上
高度2000ftの雲はほとんどない

TAF: ENSB 2406/2506 VRB05KT 9999 FEW020

4,000以上の空港の気象観測と天気予報(METAR報とTAF報)

利用可能な観測所は地図上に黄色い丸と赤い丸で示す。

丸の上にカーソルを重ねると観測所名を参照できる。

次にクリックすると気象観測と天気予報を参照できる。

マップの切り替え:黒色「×」印の緑ボタンをクリックして拡大、「-」印の緑ボタンをクリックして縮小、緑色の三角印をクリックして隣りの地図に切り替え


METAR-TAF: